Time;durP1;ratioP1;P1;durP2;ratioP2;P2;SDS_P1;SDS_P2;PMS_P1;PMS_P2;Temp;Humidity;BMP_temperature;BMP_pressure;BME280_temperature;BME280_humidity;BME280_pressure;Samples;Min_cycle;Max_cycle;Signal;HPM_P1;HPM_P2
2023/03/18 00:00:33;;;;;;;19.60;9.88;;;;;;;;;;2068986;28;20057;-79
2023/03/18 00:01:53;;;;;;;23.20;10.68;;;;;;;;;;2070285;28;20021;-79
2023/03/18 00:03:13;;;;;;;17.55;9.70;;;;;;;;;;2070373;28;20046;-79
2023/03/18 00:04:32;;;;;;;19.80;10.13;;;;;;;;;;2077053;28;20511;-79
2023/03/18 00:05:52;;;;;;;17.70;10.05;;;;;;;;;;2071344;28;20034;-78
2023/03/18 00:07:11;;;;;;;22.10;10.73;;;;;;;;;;2066640;28;20034;-79
2023/03/18 00:08:31;;;;;;;17.42;10.70;;;;;;;;;;2067237;28;20033;-78
2023/03/18 00:09:51;;;;;;;20.98;10.13;;;;;;;;;;2065716;28;20057;-78
2023/03/18 00:11:11;;;;;;;19.60;10.23;;;;;;;;;;2069212;28;20068;-78
2023/03/18 00:12:31;;;;;;;20.05;10.13;;;;;;;;;;2077229;28;20025;-79
2023/03/18 00:13:51;;;;;;;20.50;11.05;;;;;;;;;;2074873;28;20584;-80
2023/03/18 00:15:12;;;;;;;17.05;9.93;;;;;;;;;;2069985;28;20054;-78
2023/03/18 00:16:31;;;;;;;20.48;10.20;;;;;;;;;;2068952;28;20030;-78
2023/03/18 00:17:50;;;;;;;19.23;10.40;;;;;;;;;;2067947;28;20526;-79
2023/03/18 00:19:10;;;;;;;17.35;10.10;;;;;;;;;;2070660;28;20034;-78
2023/03/18 00:20:37;;;;;;;19.13;10.30;;;;;;;;;;2068799;28;20022;-79
2023/03/18 00:21:56;;;;;;;20.95;10.80;;;;;;;;;;2067558;28;20481;-79
2023/03/18 00:23:15;;;;;;;24.83;10.75;;;;;;;;;;2075656;28;20570;-78
2023/03/18 00:24:34;;;;;;;24.15;10.60;;;;;;;;;;2073078;28;20026;-79
2023/03/18 00:25:55;;;;;;;19.95;10.70;;;;;;;;;;2072340;28;20021;-78
2023/03/18 00:27:14;;;;;;;23.95;10.50;;;;;;;;;;2067926;28;20045;-78
2023/03/18 00:28:34;;;;;;;19.90;11.00;;;;;;;;;;2067130;28;20034;-79
2023/03/18 00:29:53;;;;;;;20.92;10.80;;;;;;;;;;2070938;28;20022;-78
2023/03/18 00:31:12;;;;;;;24.70;11.43;;;;;;;;;;2079681;28;20667;-78
2023/03/18 00:32:33;;;;;;;19.38;11.05;;;;;;;;;;2073594;28;20073;-78
2023/03/18 00:33:52;;;;;;;27.23;11.57;;;;;;;;;;2070771;28;20022;-78
2023/03/18 00:35:11;;;;;;;24.75;11.15;;;;;;;;;;2077171;28;20029;-78
2023/03/18 00:36:31;;;;;;;24.02;11.00;;;;;;;;;;2073073;28;20080;-78
2023/03/18 00:37:49;;;;;;;22.60;11.18;;;;;;;;;;2068206;28;20495;-78
2023/03/18 00:39:09;;;;;;;22.42;10.88;;;;;;;;;;2073656;28;20038;-79
2023/03/18 00:40:41;;;;;;;21.92;10.65;;;;;;;;;;2069447;28;20026;-79
2023/03/18 00:42:09;;;;;;;20.73;10.60;;;;;;;;;;2080857;28;20034;-79
2023/03/18 00:43:32;;;;;;;18.35;10.52;;;;;;;;;;2080153;28;20049;-79
2023/03/18 00:44:51;;;;;;;22.15;10.57;;;;;;;;;;2073319;28;20034;-78
2023/03/18 00:46:11;;;;;;;31.90;11.75;;;;;;;;;;2069973;28;20026;-78
2023/03/18 00:47:30;;;;;;;22.80;10.93;;;;;;;;;;2077388;28;21172;-78
2023/03/18 00:48:50;;;;;;;20.33;10.30;;;;;;;;;;2074494;28;20108;-79
2023/03/18 00:50:10;;;;;;;20.35;10.77;;;;;;;;;;2080142;28;20025;-79
2023/03/18 00:51:31;;;;;;;20.98;11.10;;;;;;;;;;2074840;28;20034;-78
2023/03/18 00:52:50;;;;;;;18.70;10.57;;;;;;;;;;2074216;28;20058;-79
2023/03/18 00:54:11;;;;;;;21.13;10.32;;;;;;;;;;2067957;28;20029;-79
2023/03/18 00:55:30;;;;;;;26.02;11.07;;;;;;;;;;2081052;28;20120;-78
2023/03/18 00:56:49;;;;;;;20.05;11.15;;;;;;;;;;2073424;28;20517;-79
2023/03/18 00:58:08;;;;;;;23.10;11.13;;;;;;;;;;2070070;28;20487;-79
2023/03/18 00:59:28;;;;;;;26.42;10.93;;;;;;;;;;2074499;28;20553;-79
2023/03/18 01:00:47;;;;;;;24.52;11.73;;;;;;;;;;2077351;28;20041;-77
2023/03/18 01:02:07;;;;;;;21.50;10.68;;;;;;;;;;2073641;28;20514;-80
2023/03/18 01:03:26;;;;;;;21.35;10.63;;;;;;;;;;2071571;28;21026;-78
2023/03/18 01:04:45;;;;;;;22.33;10.82;;;;;;;;;;2078618;28;20030;-79
2023/03/18 01:06:04;;;;;;;23.08;11.27;;;;;;;;;;2071579;28;20034;-78
2023/03/18 01:07:24;;;;;;;20.42;10.98;;;;;;;;;;2077806;28;20021;-79
2023/03/18 01:08:43;;;;;;;23.25;10.55;;;;;;;;;;2079141;28;20029;-78
2023/03/18 01:10:02;;;;;;;22.88;10.82;;;;;;;;;;2077750;28;20025;-79
2023/03/18 01:11:21;;;;;;;24.85;10.73;;;;;;;;;;2080587;28;20029;-78
2023/03/18 01:12:42;;;;;;;21.20;10.98;;;;;;;;;;2080423;28;20026;-78
2023/03/18 01:14:02;;;;;;;16.52;10.55;;;;;;;;;;2080782;28;20021;-79
2023/03/18 01:15:22;;;;;;;21.10;10.75;;;;;;;;;;2078609;28;20021;-78
2023/03/18 01:16:41;;;;;;;21.75;11.40;;;;;;;;;;2078935;28;20022;-79
2023/03/18 01:18:00;;;;;;;25.23;11.30;;;;;;;;;;2076239;28;20482;-79
2023/03/18 01:19:19;;;;;;;22.77;11.60;;;;;;;;;;2071427;28;20037;-79
2023/03/18 01:20:38;;;;;;;21.00;11.07;;;;;;;;;;2079407;28;20041;-78
2023/03/18 01:21:58;;;;;;;27.27;11.35;;;;;;;;;;2075984;28;20041;-78
2023/03/18 01:23:17;;;;;;;26.38;11.75;;;;;;;;;;2073990;28;20037;-79
2023/03/18 01:24:38;;;;;;;19.45;10.85;;;;;;;;;;2075368;28;20030;-79
2023/03/18 01:25:57;;;;;;;24.35;10.88;;;;;;;;;;2085864;28;20039;-80
2023/03/18 01:27:17;;;;;;;20.70;11.02;;;;;;;;;;2088723;28;20029;-79
2023/03/18 01:28:36;;;;;;;23.55;11.60;;;;;;;;;;2090060;28;20002;-80
2023/03/18 01:29:55;;;;;;;21.20;11.23;;;;;;;;;;2091380;28;20018;-80
2023/03/18 01:31:14;;;;;;;26.05;10.63;;;;;;;;;;2084524;28;20026;-78
2023/03/18 01:32:34;;;;;;;27.08;12.40;;;;;;;;;;2084831;28;20025;-80
2023/03/18 01:33:53;;;;;;;22.42;11.65;;;;;;;;;;2089629;28;20101;-79
2023/03/18 01:35:12;;;;;;;24.55;11.10;;;;;;;;;;2083619;28;20033;-79
2023/03/18 01:36:32;;;;;;;17.65;10.80;;;;;;;;;;2082521;28;20072;-78
2023/03/18 01:37:52;;;;;;;26.65;12.00;;;;;;;;;;2081897;28;20029;-79
2023/03/18 01:39:11;;;;;;;20.02;11.05;;;;;;;;;;2082115;28;20037;-79
2023/03/18 01:40:31;;;;;;;20.25;10.43;;;;;;;;;;2075645;28;20060;-79
2023/03/18 01:41:50;;;;;;;21.05;11.10;;;;;;;;;;2078681;28;20037;-79
2023/03/18 01:43:11;;;;;;;28.00;11.30;;;;;;;;;;2071284;28;20026;-79
2023/03/18 01:44:30;;;;;;;22.92;10.70;;;;;;;;;;2076931;28;20030;-79
2023/03/18 01:45:50;;;;;;;23.25;11.57;;;;;;;;;;2073206;28;20033;-80
2023/03/18 01:47:09;;;;;;;21.25;11.30;;;;;;;;;;2078668;28;20034;-79
2023/03/18 01:48:29;;;;;;;22.05;11.55;;;;;;;;;;2071961;28;20030;-79
2023/03/18 01:49:49;;;;;;;25.95;10.75;;;;;;;;;;2076170;28;20026;-79
2023/03/18 01:51:10;;;;;;;21.77;10.48;;;;;;;;;;2080245;28;20026;-79
2023/03/18 01:52:31;;;;;;;24.80;11.45;;;;;;;;;;2071993;28;20030;-77
2023/03/18 01:53:51;;;;;;;16.75;10.60;;;;;;;;;;2078028;28;20073;-77
2023/03/18 01:55:21;;;;;;;24.70;11.85;;;;;;;;;;2072260;28;20416;-77
2023/03/18 01:56:42;;;;;;;26.33;11.15;;;;;;;;;;2069995;28;20029;-79
2023/03/18 01:58:08;;;;;;;19.80;10.38;;;;;;;;;;2078692;28;20387;-77
2023/03/18 01:59:31;;;;;;;20.38;10.73;;;;;;;;;;2080314;28;20030;-79
2023/03/18 02:00:54;;;;;;;27.20;11.25;;;;;;;;;;2072525;28;20049;-76
2023/03/18 02:02:14;;;;;;;18.20;10.73;;;;;;;;;;2069369;28;20414;-77
2023/03/18 02:03:34;;;;;;;22.85;10.77;;;;;;;;;;2079657;28;20037;-76
2023/03/18 02:04:55;;;;;;;18.38;11.55;;;;;;;;;;2072016;28;20499;-78
2023/03/18 02:06:14;;;;;;;21.98;11.20;;;;;;;;;;2075996;28;20064;-77
2023/03/18 02:07:34;;;;;;;21.92;11.05;;;;;;;;;;2078937;28;20018;-78
2023/03/18 02:08:54;;;;;;;21.65;11.13;;;;;;;;;;2079587;28;20021;-77
2023/03/18 02:10:15;;;;;;;19.55;10.05;;;;;;;;;;2072873;28;20029;-77
2023/03/18 02:11:39;;;;;;;23.35;11.75;;;;;;;;;;2078542;28;20022;-77
2023/03/18 02:13:01;;;;;;;23.40;11.73;;;;;;;;;;2078463;28;20042;-76
2023/03/18 02:14:24;;;;;;;21.35;10.82;;;;;;;;;;2079343;28;20065;-78
2023/03/18 02:16:09;;;;;;;25.63;12.40;;;;;;;;;;2081665;28;20084;-76
2023/03/18 02:17:30;;;;;;;20.77;11.95;;;;;;;;;;2081232;28;20041;-76
2023/03/18 02:18:51;;;;;;;24.70;12.02;;;;;;;;;;2079107;28;20041;-76
2023/03/18 02:20:29;;;;;;;32.58;11.43;;;;;;;;;;2071915;28;20042;-76
2023/03/18 02:22:07;;;;;;;27.08;12.70;;;;;;;;;;2080508;28;20033;-77
2023/03/18 02:23:41;;;;;;;26.88;12.23;;;;;;;;;;2080509;28;20478;-77
2023/03/18 02:25:05;;;;;;;21.20;12.13;;;;;;;;;;2079673;28;20026;-80
2023/03/18 02:26:24;;;;;;;22.25;12.40;;;;;;;;;;2072076;28;20037;-77
2023/03/18 02:27:45;;;;;;;34.13;13.38;;;;;;;;;;2079686;28;20057;-76
2023/03/18 02:29:05;;;;;;;22.95;12.77;;;;;;;;;;2073509;28;20041;-79
2023/03/18 02:30:26;;;;;;;23.08;12.98;;;;;;;;;;2074897;28;20429;-76
2023/03/18 02:31:46;;;;;;;27.50;13.05;;;;;;;;;;2070864;28;20148;-76
2023/03/18 02:33:06;;;;;;;27.15;13.13;;;;;;;;;;2076461;28;20041;-75
2023/03/18 02:34:25;;;;;;;24.20;13.05;;;;;;;;;;2079881;28;20037;-76
2023/03/18 02:35:46;;;;;;;24.50;12.98;;;;;;;;;;2074113;28;20043;-76
2023/03/18 02:37:06;;;;;;;26.25;14.05;;;;;;;;;;2076530;28;20033;-76
2023/03/18 02:38:25;;;;;;;28.70;12.70;;;;;;;;;;2073924;28;20052;-76
2023/03/18 02:39:45;;;;;;;26.95;14.40;;;;;;;;;;2076302;28;20029;-77
2023/03/18 02:41:04;;;;;;;26.60;14.23;;;;;;;;;;2078429;28;20414;-76
2023/03/18 02:42:28;;;;;;;27.85;13.93;;;;;;;;;;2077641;28;20033;-75
2023/03/18 02:43:49;;;;;;;25.73;13.90;;;;;;;;;;2081040;28;20606;-76
2023/03/18 02:45:12;;;;;;;29.35;14.73;;;;;;;;;;2073413;28;20041;-75
2023/03/18 02:46:35;;;;;;;36.33;15.73;;;;;;;;;;2077124;28;20390;-76
2023/03/18 02:47:56;;;;;;;31.23;14.50;;;;;;;;;;2071708;28;20026;-76
2023/03/18 02:49:16;;;;;;;32.22;14.20;;;;;;;;;;2078733;28;20942;-76
2023/03/18 02:50:35;;;;;;;35.53;15.05;;;;;;;;;;2078776;28;20437;-76
2023/03/18 02:51:55;;;;;;;28.25;15.20;;;;;;;;;;2070798;28;20022;-77
2023/03/18 02:53:14;;;;;;;24.65;15.25;;;;;;;;;;2077719;28;20437;-77
2023/03/18 02:54:33;;;;;;;32.33;14.88;;;;;;;;;;2071780;28;20073;-77
2023/03/18 02:55:52;;;;;;;29.33;14.70;;;;;;;;;;2073614;28;20033;-78
2023/03/18 02:57:12;;;;;;;26.75;14.98;;;;;;;;;;2075716;28;20026;-77
2023/03/18 02:58:31;;;;;;;24.75;14.90;;;;;;;;;;2080553;28;20049;-76
2023/03/18 02:59:50;;;;;;;30.42;15.10;;;;;;;;;;2079816;28;20021;-77
2023/03/18 03:01:09;;;;;;;26.25;15.45;;;;;;;;;;2075709;28;20479;-77
2023/03/18 03:02:28;;;;;;;26.15;15.35;;;;;;;;;;2072373;28;20499;-77
2023/03/18 03:03:47;;;;;;;28.23;16.23;;;;;;;;;;2071872;28;20022;-77
2023/03/18 03:05:08;;;;;;;31.90;16.02;;;;;;;;;;2071865;28;20030;-77
2023/03/18 03:06:27;;;;;;;32.67;15.73;;;;;;;;;;2074979;28;20708;-77
2023/03/18 03:07:46;;;;;;;32.05;16.13;;;;;;;;;;2068698;28;20030;-77
2023/03/18 03:09:07;;;;;;;35.03;16.45;;;;;;;;;;2076617;28;20034;-77
2023/03/18 03:10:25;;;;;;;33.72;16.05;;;;;;;;;;2076385;28;20037;-77
2023/03/18 03:11:45;;;;;;;32.85;16.05;;;;;;;;;;2069319;28;20029;-77
2023/03/18 03:13:05;;;;;;;34.65;17.05;;;;;;;;;;2070120;28;20026;-78
2023/03/18 03:14:24;;;;;;;28.40;15.43;;;;;;;;;;2077345;28;20065;-78
2023/03/18 03:15:45;;;;;;;32.58;17.20;;;;;;;;;;2079982;28;20033;-78
2023/03/18 03:17:04;;;;;;;37.03;18.63;;;;;;;;;;2080235;28;20490;-78
2023/03/18 03:18:24;;;;;;;39.00;16.80;;;;;;;;;;2071506;28;20630;-77
2023/03/18 03:19:44;;;;;;;32.30;17.38;;;;;;;;;;2074665;28;20104;-78
2023/03/18 03:21:04;;;;;;;30.45;17.02;;;;;;;;;;2077325;28;20138;-78
2023/03/18 03:22:23;;;;;;;37.42;17.15;;;;;;;;;;2077656;28;20030;-77
2023/03/18 03:23:43;;;;;;;37.80;17.70;;;;;;;;;;2079832;28;20490;-78
2023/03/18 03:25:02;;;;;;;32.67;17.95;;;;;;;;;;2077434;28;20033;-77
2023/03/18 03:26:22;;;;;;;37.47;18.30;;;;;;;;;;2068329;28;20022;-77
2023/03/18 03:27:42;;;;;;;31.75;16.95;;;;;;;;;;2067780;28;20053;-78
2023/03/18 03:29:03;;;;;;;36.88;17.27;;;;;;;;;;2071517;28;20041;-77
2023/03/18 03:30:22;;;;;;;30.83;17.83;;;;;;;;;;2069739;28;20066;-78
2023/03/18 03:31:41;;;;;;;34.28;18.17;;;;;;;;;;2077187;28;20433;-77
2023/03/18 03:33:00;;;;;;;30.17;16.55;;;;;;;;;;2078565;28;20037;-77
2023/03/18 03:34:19;;;;;;;32.58;17.25;;;;;;;;;;2077708;28;20470;-77
2023/03/18 03:35:38;;;;;;;34.03;17.88;;;;;;;;;;2079095;28;20045;-77
2023/03/18 03:36:57;;;;;;;29.42;16.75;;;;;;;;;;2070997;28;20616;-77
2023/03/18 03:38:17;;;;;;;27.98;16.65;;;;;;;;;;2073926;28;20430;-77
2023/03/18 03:39:36;;;;;;;32.33;17.60;;;;;;;;;;2078391;28;20029;-78
2023/03/18 03:40:55;;;;;;;27.38;16.40;;;;;;;;;;2076494;28;20030;-78
2023/03/18 03:42:14;;;;;;;29.25;16.98;;;;;;;;;;2076231;28;20056;-78
2023/03/18 03:43:33;;;;;;;33.97;16.88;;;;;;;;;;2074325;28;20465;-78
2023/03/18 03:44:53;;;;;;;28.48;17.10;;;;;;;;;;2076070;28;20486;-78
2023/03/18 03:46:14;;;;;;;29.42;16.73;;;;;;;;;;2077919;28;20029;-78
2023/03/18 03:47:35;;;;;;;32.60;16.23;;;;;;;;;;2079603;28;20471;-78
2023/03/18 03:48:54;;;;;;;26.00;16.00;;;;;;;;;;2073117;28;20026;-78
2023/03/18 03:50:13;;;;;;;31.23;15.70;;;;;;;;;;2075097;28;20037;-77
2023/03/18 03:51:32;;;;;;;28.90;16.80;;;;;;;;;;2074381;28;20093;-78
2023/03/18 03:52:52;;;;;;;30.02;16.38;;;;;;;;;;2075645;28;20053;-78
2023/03/18 03:54:12;;;;;;;29.42;17.48;;;;;;;;;;2078568;28;20029;-79
2023/03/18 03:55:32;;;;;;;28.65;16.77;;;;;;;;;;2081012;28;20026;-78
2023/03/18 03:56:52;;;;;;;33.60;18.00;;;;;;;;;;2078103;28;20483;-77
2023/03/18 03:58:11;;;;;;;30.30;16.70;;;;;;;;;;2078857;28;20446;-77
2023/03/18 03:59:30;;;;;;;28.48;16.90;;;;;;;;;;2072486;28;20061;-77
2023/03/18 04:00:49;;;;;;;30.88;17.08;;;;;;;;;;2074692;28;20025;-77
2023/03/18 04:02:08;;;;;;;29.85;17.40;;;;;;;;;;2070092;28;20053;-77
2023/03/18 04:03:27;;;;;;;31.58;16.98;;;;;;;;;;2071176;28;20113;-77
2023/03/18 04:04:46;;;;;;;26.75;16.40;;;;;;;;;;2076613;28;20037;-77
2023/03/18 04:06:05;;;;;;;28.88;16.67;;;;;;;;;;2079678;28;20034;-78
2023/03/18 04:07:25;;;;;;;33.15;16.73;;;;;;;;;;2079051;28;20022;-77
2023/03/18 04:08:45;;;;;;;26.75;16.58;;;;;;;;;;2079593;28;20108;-78
2023/03/18 04:10:04;;;;;;;34.85;17.67;;;;;;;;;;2080153;28;20092;-78
2023/03/18 04:11:24;;;;;;;33.75;17.42;;;;;;;;;;2080535;28;20026;-78
2023/03/18 04:12:47;;;;;;;29.02;16.67;;;;;;;;;;2079435;28;20615;-78
2023/03/18 04:14:06;;;;;;;32.20;17.98;;;;;;;;;;2081606;28;20026;-78
2023/03/18 04:15:26;;;;;;;31.08;17.77;;;;;;;;;;2079794;28;20026;-77
2023/03/18 04:16:45;;;;;;;26.70;17.13;;;;;;;;;;2079837;28;20025;-77
2023/03/18 04:18:05;;;;;;;31.58;17.58;;;;;;;;;;2078280;28;20025;-78
2023/03/18 04:19:26;;;;;;;32.72;17.75;;;;;;;;;;2074007;28;20022;-77
2023/03/18 04:20:45;;;;;;;33.42;17.88;;;;;;;;;;2076662;28;20030;-75
2023/03/18 04:22:04;;;;;;;33.90;17.92;;;;;;;;;;2073324;28;20026;-77
2023/03/18 04:23:24;;;;;;;29.80;18.67;;;;;;;;;;2071286;28;20061;-77
2023/03/18 04:24:44;;;;;;;33.28;17.35;;;;;;;;;;2077931;28;20029;-77
2023/03/18 04:26:04;;;;;;;29.95;17.30;;;;;;;;;;2082196;28;20029;-77
2023/03/18 04:27:23;;;;;;;30.95;16.50;;;;;;;;;;2082191;28;20486;-77
2023/03/18 04:28:42;;;;;;;32.08;17.20;;;;;;;;;;2080092;28;20025;-77
2023/03/18 04:30:02;;;;;;;29.88;16.90;;;;;;;;;;2073059;28;20466;-77
2023/03/18 04:31:21;;;;;;;28.13;16.40;;;;;;;;;;2077058;28;20127;-78
2023/03/18 04:32:40;;;;;;;33.53;16.75;;;;;;;;;;2071432;28;20495;-78
2023/03/18 04:33:59;;;;;;;32.97;16.70;;;;;;;;;;2069778;28;20041;-77
2023/03/18 04:35:19;;;;;;;30.67;18.15;;;;;;;;;;2070860;28;20033;-77
2023/03/18 04:36:38;;;;;;;30.17;17.83;;;;;;;;;;2073515;28;20506;-78
2023/03/18 04:37:58;;;;;;;31.08;17.88;;;;;;;;;;2071573;28;20042;-78
2023/03/18 04:39:17;;;;;;;33.85;17.83;;;;;;;;;;2079606;28;20497;-78
2023/03/18 04:40:36;;;;;;;34.50;17.98;;;;;;;;;;2073370;28;20034;-78
2023/03/18 04:41:56;;;;;;;25.90;17.17;;;;;;;;;;2074059;28;20026;-78
2023/03/18 04:43:15;;;;;;;31.02;18.85;;;;;;;;;;2078390;28;20029;-79
2023/03/18 04:44:34;;;;;;;36.08;18.17;;;;;;;;;;2072787;28;20022;-78
2023/03/18 04:45:53;;;;;;;34.75;19.38;;;;;;;;;;2071301;28;20085;-77
2023/03/18 04:47:12;;;;;;;30.60;17.50;;;;;;;;;;2071934;28;20034;-78
2023/03/18 04:48:31;;;;;;;31.52;18.20;;;;;;;;;;2068689;28;20519;-77
2023/03/18 04:49:50;;;;;;;31.17;18.55;;;;;;;;;;2080964;28;20029;-78
2023/03/18 04:51:08;;;;;;;37.97;17.80;;;;;;;;;;2081056;28;20025;-78
2023/03/18 04:52:27;;;;;;;38.63;18.52;;;;;;;;;;2081094;28;20077;-78
2023/03/18 04:53:46;;;;;;;29.40;18.42;;;;;;;;;;2081308;28;20026;-78
2023/03/18 04:55:06;;;;;;;33.72;19.70;;;;;;;;;;2074787;28;20030;-77
2023/03/18 04:56:25;;;;;;;34.55;18.58;;;;;;;;;;2068714;28;20026;-78
2023/03/18 04:57:44;;;;;;;33.78;18.38;;;;;;;;;;2071088;28;20030;-77
2023/03/18 04:59:03;;;;;;;35.80;18.63;;;;;;;;;;2069063;28;20022;-77
2023/03/18 05:00:22;;;;;;;37.33;18.67;;;;;;;;;;2076823;28;20133;-77
2023/03/18 05:01:41;;;;;;;35.85;18.58;;;;;;;;;;2081395;28;20105;-78
2023/03/18 05:03:01;;;;;;;35.53;18.27;;;;;;;;;;2072731;28;20033;-78
2023/03/18 05:04:21;;;;;;;36.85;18.85;;;;;;;;;;2070097;28;20022;-78
2023/03/18 05:05:39;;;;;;;36.13;17.65;;;;;;;;;;2078023;28;20025;-78
2023/03/18 05:06:58;;;;;;;37.00;17.50;;;;;;;;;;2079593;28;20448;-77
2023/03/18 05:08:17;;;;;;;35.60;18.23;;;;;;;;;;2078790;28;20111;-78
2023/03/18 05:09:36;;;;;;;31.38;17.83;;;;;;;;;;2081471;28;20108;-78
2023/03/18 05:10:55;;;;;;;34.97;19.27;;;;;;;;;;2072886;28;20084;-78
2023/03/18 05:12:14;;;;;;;32.83;17.20;;;;;;;;;;2076787;28;20021;-78
2023/03/18 05:13:33;;;;;;;32.25;18.92;;;;;;;;;;2075017;28;20034;-77
2023/03/18 05:14:52;;;;;;;34.88;18.33;;;;;;;;;;2076641;28;20026;-78
2023/03/18 05:16:12;;;;;;;40.58;19.85;;;;;;;;;;2078784;28;20029;-78
2023/03/18 05:17:31;;;;;;;38.85;20.05;;;;;;;;;;2081538;28;20439;-79
2023/03/18 05:18:51;;;;;;;33.67;17.88;;;;;;;;;;2080292;28;20025;-79
2023/03/18 05:20:12;;;;;;;36.03;19.70;;;;;;;;;;2077469;28;20048;-79
2023/03/18 05:21:31;;;;;;;35.53;19.17;;;;;;;;;;2073985;28;20060;-79
2023/03/18 05:22:51;;;;;;;38.00;19.58;;;;;;;;;;2069735;28;20034;-79
2023/03/18 05:24:10;;;;;;;32.80;18.27;;;;;;;;;;2069668;28;20058;-77
2023/03/18 05:25:28;;;;;;;35.10;18.00;;;;;;;;;;2078975;28;20041;-77
2023/03/18 05:26:48;;;;;;;31.17;17.80;;;;;;;;;;2070803;28;20105;-79
2023/03/18 05:28:07;;;;;;;34.08;19.13;;;;;;;;;;2079068;28;20037;-78
2023/03/18 05:29:26;;;;;;;39.67;18.63;;;;;;;;;;2080619;28;20017;-78
2023/03/18 05:30:46;;;;;;;40.25;18.92;;;;;;;;;;2072606;28;20474;-77
2023/03/18 05:32:08;;;;;;;32.25;18.60;;;;;;;;;;2075200;28;20430;-79
2023/03/18 05:33:27;;;;;;;28.42;18.45;;;;;;;;;;2076713;28;20053;-78
2023/03/18 05:34:46;;;;;;;33.45;18.60;;;;;;;;;;2069859;28;20029;-78
2023/03/18 05:36:06;;;;;;;31.63;19.38;;;;;;;;;;2078797;28;20034;-78
2023/03/18 05:37:25;;;;;;;33.20;18.83;;;;;;;;;;2080774;28;20628;-77
2023/03/18 05:38:45;;;;;;;35.72;18.38;;;;;;;;;;2080992;28;20029;-77
2023/03/18 05:40:08;;;;;;;37.35;19.60;;;;;;;;;;2080447;28;20013;-79
2023/03/18 05:41:27;;;;;;;37.10;19.25;;;;;;;;;;2088419;28;20013;-79
2023/03/18 05:42:46;;;;;;;38.60;18.98;;;;;;;;;;2089156;28;20041;-79
2023/03/18 05:44:06;;;;;;;32.40;18.45;;;;;;;;;;2088995;28;20014;-80
2023/03/18 05:45:25;;;;;;;36.60;20.20;;;;;;;;;;2082094;28;20006;-78
2023/03/18 05:46:44;;;;;;;33.22;18.77;;;;;;;;;;2086989;28;20197;-78
2023/03/18 05:48:04;;;;;;;37.17;19.00;;;;;;;;;;2091782;28;20017;-77
2023/03/18 05:49:23;;;;;;;37.25;20.00;;;;;;;;;;2089339;28;20042;-78
2023/03/18 05:50:42;;;;;;;39.08;19.67;;;;;;;;;;2087258;28;20025;-78
2023/03/18 05:52:01;;;;;;;34.47;18.48;;;;;;;;;;2077862;28;20108;-78
2023/03/18 05:53:20;;;;;;;33.00;19.33;;;;;;;;;;2072749;28;20053;-78
2023/03/18 05:54:41;;;;;;;35.10;19.63;;;;;;;;;;2078412;28;20025;-78
2023/03/18 05:56:00;;;;;;;33.97;19.75;;;;;;;;;;2076164;28;20487;-78
2023/03/18 05:57:19;;;;;;;32.15;19.55;;;;;;;;;;2071055;28;20057;-78
2023/03/18 05:58:39;;;;;;;34.25;18.35;;;;;;;;;;2073501;28;20030;-79
2023/03/18 05:59:58;;;;;;;39.80;18.88;;;;;;;;;;2077590;28;20033;-77
2023/03/18 06:01:18;;;;;;;35.72;19.17;;;;;;;;;;2072299;28;20029;-76
2023/03/18 06:02:38;;;;;;;29.83;19.40;;;;;;;;;;2068815;28;20274;-77
2023/03/18 06:03:57;;;;;;;32.92;18.90;;;;;;;;;;2072902;28;20430;-78
2023/03/18 06:05:17;;;;;;;38.25;20.33;;;;;;;;;;2078551;28;20053;-77
2023/03/18 06:06:39;;;;;;;33.03;18.92;;;;;;;;;;2080015;28;20030;-78
2023/03/18 06:07:59;;;;;;;35.05;19.98;;;;;;;;;;2072142;28;20058;-78
2023/03/18 06:09:18;;;;;;;35.38;19.80;;;;;;;;;;2078255;28;20030;-78
2023/03/18 06:10:37;;;;;;;37.35;19.33;;;;;;;;;;2079505;28;20796;-78
2023/03/18 06:11:57;;;;;;;35.88;19.77;;;;;;;;;;2079152;28;20479;-77
2023/03/18 06:13:16;;;;;;;39.22;20.42;;;;;;;;;;2081831;28;20050;-79
2023/03/18 06:14:36;;;;;;;36.45;19.52;;;;;;;;;;2069643;28;21942;-78
2023/03/18 06:15:55;;;;;;;38.60;20.02;;;;;;;;;;2075234;28;20026;-78
2023/03/18 06:17:15;;;;;;;31.23;18.95;;;;;;;;;;2080050;28;20144;-78
2023/03/18 06:18:34;;;;;;;34.78;20.02;;;;;;;;;;2080202;28;20448;-80
2023/03/18 06:19:54;;;;;;;40.40;19.48;;;;;;;;;;2078914;28;20033;-80
2023/03/18 06:21:13;;;;;;;40.35;20.00;;;;;;;;;;2071954;28;20454;-79
2023/03/18 06:22:32;;;;;;;34.75;18.80;;;;;;;;;;2071352;28;20120;-79
2023/03/18 06:23:50;;;;;;;34.92;19.40;;;;;;;;;;2070378;28;20534;-77
2023/03/18 06:25:10;;;;;;;41.22;18.70;;;;;;;;;;2076735;28;20069;-77
2023/03/18 06:26:29;;;;;;;38.53;19.38;;;;;;;;;;2076959;28;20030;-78
2023/03/18 06:27:49;;;;;;;35.28;19.40;;;;;;;;;;2080119;28;20553;-79
2023/03/18 06:29:09;;;;;;;31.05;18.98;;;;;;;;;;2074589;28;20121;-78
2023/03/18 06:30:28;;;;;;;35.38;19.45;;;;;;;;;;2063197;28;20499;-78
2023/03/18 06:31:47;;;;;;;36.45;18.80;;;;;;;;;;2066111;28;20018;-79
2023/03/18 06:33:07;;;;;;;36.60;18.70;;;;;;;;;;2076206;28;20670;-79
2023/03/18 06:34:26;;;;;;;40.47;19.63;;;;;;;;;;2073807;28;20029;-79
2023/03/18 06:35:47;;;;;;;39.78;19.65;;;;;;;;;;2067162;28;20113;-80
2023/03/18 06:37:06;;;;;;;40.22;18.30;;;;;;;;;;2068020;28;20061;-80
2023/03/18 06:38:27;;;;;;;34.60;19.30;;;;;;;;;;2071264;28;20029;-80
2023/03/18 06:39:46;;;;;;;67.55;35.30;;;;;;;;;;2077816;28;20030;-79
2023/03/18 06:41:05;;;;;;;32.80;19.00;;;;;;;;;;2077875;28;20029;-79
2023/03/18 06:42:24;;;;;;;37.83;19.35;;;;;;;;;;2074083;28;20108;-79
2023/03/18 06:43:43;;;;;;;39.47;17.80;;;;;;;;;;2073674;28;20050;-78
2023/03/18 06:45:02;;;;;;;34.97;18.30;;;;;;;;;;2067663;28;20030;-78
2023/03/18 06:46:22;;;;;;;32.88;18.20;;;;;;;;;;2079353;28;20446;-78
2023/03/18 06:47:42;;;;;;;35.20;18.52;;;;;;;;;;2073329;28;20575;-79
2023/03/18 06:49:01;;;;;;;32.70;18.50;;;;;;;;;;2075955;28;20049;-79
2023/03/18 06:50:21;;;;;;;34.75;18.35;;;;;;;;;;2073563;28;20062;-77
2023/03/18 06:51:41;;;;;;;39.38;18.23;;;;;;;;;;2078664;28;20478;-78
2023/03/18 06:53:07;;;;;;;37.65;19.05;;;;;;;;;;2090775;27;20400;-68
2023/03/18 06:54:27;;;;;;;37.10;17.27;;;;;;;;;;2085971;28;20432;-67
2023/03/18 06:55:47;;;;;;;37.40;18.33;;;;;;;;;;2085169;28;20025;-69
2023/03/18 06:57:07;;;;;;;35.97;18.05;;;;;;;;;;2083873;28;20030;-69
2023/03/18 06:58:26;;;;;;;39.40;18.00;;;;;;;;;;2083727;28;20030;-68
2023/03/18 06:59:45;;;;;;;34.33;17.63;;;;;;;;;;2085205;28;20028;-68
2023/03/18 07:01:04;;;;;;;33.00;18.05;;;;;;;;;;2081663;28;20619;-67
2023/03/18 07:02:23;;;;;;;38.40;18.38;;;;;;;;;;2088869;28;20500;-67
2023/03/18 07:03:43;;;;;;;39.05;18.25;;;;;;;;;;2081458;28;20029;-67
2023/03/18 07:05:03;;;;;;;44.92;18.88;;;;;;;;;;2083432;28;20414;-70
2023/03/18 07:06:23;;;;;;;36.83;17.60;;;;;;;;;;2084372;28;20041;-67
2023/03/18 07:07:43;;;;;;;31.63;16.25;;;;;;;;;;2083550;28;20037;-69
2023/03/18 07:09:02;;;;;;;33.55;18.02;;;;;;;;;;2084053;28;20525;-67
2023/03/18 07:10:24;;;;;;;35.70;17.52;;;;;;;;;;2085592;28;20602;-67
2023/03/18 07:11:45;;;;;;;34.00;18.15;;;;;;;;;;2084785;28;20474;-67
2023/03/18 07:13:04;;;;;;;32.22;17.20;;;;;;;;;;2090200;28;20037;-67
2023/03/18 07:14:23;;;;;;;33.03;17.13;;;;;;;;;;2086109;28;20041;-67
2023/03/18 07:15:42;;;;;;;34.53;18.60;;;;;;;;;;2082992;28;20026;-68
2023/03/18 07:17:02;;;;;;;36.05;18.48;;;;;;;;;;2083769;28;20029;-67
2023/03/18 07:18:22;;;;;;;39.15;18.15;;;;;;;;;;2084375;28;20034;-69
2023/03/18 07:19:41;;;;;;;35.15;17.52;;;;;;;;;;2092695;28;20030;-68
2023/03/18 07:21:00;;;;;;;33.83;17.70;;;;;;;;;;2085643;28;20045;-69
2023/03/18 07:22:20;;;;;;;31.30;17.73;;;;;;;;;;2084661;28;20026;-68
2023/03/18 07:23:39;;;;;;;29.10;17.45;;;;;;;;;;2083450;28;20530;-68
2023/03/18 07:24:58;;;;;;;33.55;17.95;;;;;;;;;;2082063;28;20116;-69
2023/03/18 07:26:19;;;;;;;34.28;17.23;;;;;;;;;;2081133;28;20029;-69
2023/03/18 07:27:38;;;;;;;37.63;18.20;;;;;;;;;;2083091;28;20033;-69
2023/03/18 07:28:57;;;;;;;35.92;17.92;;;;;;;;;;2082731;28;20025;-69
2023/03/18 07:30:17;;;;;;;35.50;17.60;;;;;;;;;;2082913;28;20029;-68
2023/03/18 07:31:36;;;;;;;38.33;17.95;;;;;;;;;;2085351;28;20025;-69
2023/03/18 07:32:55;;;;;;;37.80;17.90;;;;;;;;;;2080214;28;20605;-69
2023/03/18 07:34:14;;;;;;;31.20;17.73;;;;;;;;;;2085481;28;20393;-69
2023/03/18 07:35:33;;;;;;;30.27;18.10;;;;;;;;;;2083780;28;20413;-69
2023/03/18 07:36:53;;;;;;;33.90;17.27;;;;;;;;;;2082178;28;20033;-69
2023/03/18 07:38:12;;;;;;;33.05;17.52;;;;;;;;;;2083925;28;20053;-69
2023/03/18 07:39:32;;;;;;;33.20;17.60;;;;;;;;;;2091353;28;20024;-69
2023/03/18 07:40:51;;;;;;;33.88;16.98;;;;;;;;;;2081190;28;20034;-69
2023/03/18 07:42:10;;;;;;;33.55;17.90;;;;;;;;;;2083328;28;20036;-69
2023/03/18 07:43:29;;;;;;;37.60;17.52;;;;;;;;;;2080569;28;20022;-69
2023/03/18 07:44:48;;;;;;;31.27;16.80;;;;;;;;;;2083072;28;20029;-69